Nissho Maru No.18 — JL6369 — position and weather

sailwx.info

Track history (hours):
 
Tides and Currents Weather Stations Pressure Air Temp Water Temp Dewpoint Dewpoint Depression Visibility Wind Speed Wind Dir Waves Ship Positions

Nissho Maru No.18

Last reported at 2015-Jul-30 00:33 UTC. Time now 2015-Jul-30 02:02 UTC.
Position N 34°33' E 135°26'.

Length 65 m; draft 4 m.

Type: Tanker. MMSI: 431500465.

Date/timePositionNaut miles runAvg speedWind from/ knotsBaromVisibWave heightAir tempDewpointWater temp
2015-Jul-30 00:33N 34°33' E 135°26'5 5.2
2015-Jul-29 23:32N 34°33' E 135°20'1 1.1
2015-Jul-29 22:26N 34°32' E 135°19'0 0.0
2015-Jul-29 21:14N 34°32' E 135°19'0 0.1
2015-Jul-29 20:20N 34°32' E 135°19'4 5.6
2015-Jul-29 19:33N 34°29' E 135°15'1311.4
2015-Jul-29 18:23N 34°19' E 135°04'911.3
2015-Jul-29 17:33N 34°10' E 135°03'219 9.1
2015-Jul-28 17:30N 34°59' E 139°22'1111.1
2015-Jul-28 16:30N 35°03' E 139°34'1111.8
2015-Jul-28 15:33N 35°10' E 139°45'1110.8
2015-Jul-28 14:33N 35°21' E 139°42'1010.3
2015-Jul-28 13:33N 35°30' E 139°47'1 1.1
2015-Jul-28 12:33N 35°31' E 139°46'0 0.0
2015-Jul-28 11:33N 35°31' E 139°46'0 0.0
2015-Jul-28 10:33N 35°31' E 139°46'0 0.0
2015-Jul-28 09:33N 35°31' E 139°46'0 0.0
2015-Jul-28 08:33N 35°31' E 139°46'0 0.0
2015-Jul-28 07:33N 35°31' E 139°46'0 0.0
2015-Jul-28 06:33N 35°31' E 139°46'0 0.0
2015-Jul-28 05:33N 35°31' E 139°46'2 2.0
2015-Jul-28 04:33N 35°30' E 139°48'2 1.5
2015-Jul-28 03:33N 35°29' E 139°49'0 0.0
2015-Jul-28 02:33N 35°29' E 139°49'0 0.0
2015-Jul-28 01:33N 35°29' E 139°49'0 0.0
2015-Jul-28 00:33N 35°29' E 139°49'0 0.0
2015-Jul-27 23:33N 35°29' E 139°49'0 0.0
2015-Jul-27 22:33N 35°29' E 139°49'0 0.0
2015-Jul-27 21:33N 35°29' E 139°49'0 0.1
2015-Jul-27 20:33N 35°29' E 139°49'0 0.0
2015-Jul-27 19:33N 35°29' E 139°49'0 0.0
2015-Jul-27 18:33N 35°29' E 139°49'0 0.0
2015-Jul-27 17:33N 35°29' E 139°49'0 0.0
2015-Jul-27 16:33N 35°29' E 139°49'0 0.0
2015-Jul-27 15:33N 35°29' E 139°49'0 0.0
2015-Jul-27 14:33N 35°29' E 139°49'0 0.0
2015-Jul-27 13:33N 35°29' E 139°49'0 0.0
2015-Jul-27 12:33N 35°29' E 139°49'0 0.1
2015-Jul-27 11:33N 35°29' E 139°49'1111.0
2015-Jul-27 10:33N 35°19' E 139°44'1010.2
2015-Jul-27 09:33N 35°09' E 139°46'1111.3
2015-Jul-27 08:33N 35°01' E 139°37'234 9.6
2015-Jul-26 08:19N 33°60' E 135°03'7 9.8
2015-Jul-26 07:33N 34°07' E 135°04'3 3.1
2015-Jul-26 06:33N 34°07' E 135°08'0 0.0
2015-Jul-26 05:32N 34°07' E 135°08'0 0.0
2015-Jul-26 04:30N 34°07' E 135°08'0 0.0
2015-Jul-26 03:33N 34°07' E 135°08'0 0.0
2015-Jul-26 02:32N 34°07' E 135°08'0 0.0
2015-Jul-26 01:32N 34°07' E 135°08'0 0.0
2015-Jul-26 00:33N 34°07' E 135°08'2 2.1
2015-Jul-25 23:33N 34°09' E 135°08'1 0.9
2015-Jul-25 22:25N 34°09' E 135°09'0 0.0
2015-Jul-25 21:25N 34°09' E 135°09'0 0.0
2015-Jul-25 20:31N 34°09' E 135°09'0 0.1
2015-Jul-25 19:31N 34°09' E 135°09'0 0.0
2015-Jul-25 18:28N 34°09' E 135°09'0 0.0
2015-Jul-25 17:31N 34°09' E 135°09'0 0.0
2015-Jul-25 16:31N 34°09' E 135°09'0 0.1
2015-Jul-25 15:31N 34°09' E 135°09'0 0.0
2015-Jul-25 14:28N 34°09' E 135°09'0 0.0
2015-Jul-25 13:28N 34°09' E 135°09'0 0.0
2015-Jul-25 12:31N 34°09' E 135°09'0 0.0
2015-Jul-25 11:31N 34°09' E 135°09'0 0.0
2015-Jul-25 10:33N 34°09' E 135°09'0 0.0
2015-Jul-25 09:33N 34°09' E 135°09'0 0.0
2015-Jul-25 08:30N 34°09' E 135°09'0 0.0
2015-Jul-25 07:33N 34°09' E 135°09'0 0.0
2015-Jul-25 06:33N 34°09' E 135°09'0 0.0
2015-Jul-25 05:31N 34°09' E 135°09'0 0.0
2015-Jul-25 04:29N 34°09' E 135°09'0 0.0
2015-Jul-25 03:17N 34°09' E 135°09'0 0.1
2015-Jul-25 02:32N 34°09' E 135°09'0 0.0
2015-Jul-25 01:32N 34°09' E 135°09'0 0.0
2015-Jul-25 00:28N 34°09' E 135°09'0 0.1
2015-Jul-24 23:25N 34°09' E 135°09'0 0.1
2015-Jul-24 22:31N 34°09' E 135°09'0 0.0
2015-Jul-24 21:31N 34°09' E 135°09'0 0.0
2015-Jul-24 20:28N 34°09' E 135°09'0 0.0
2015-Jul-24 19:28N 34°09' E 135°09'0 0.0
2015-Jul-24 18:31N 34°09' E 135°09'0 0.0
2015-Jul-24 17:28N 34°09' E 135°09'0 0.1
2015-Jul-24 16:31N 34°09' E 135°09'0 0.0
2015-Jul-24 15:28N 34°09' E 135°09'0 0.0
2015-Jul-24 14:28N 34°09' E 135°09'0 0.0
2015-Jul-24 13:16N 34°09' E 135°09'5 6.9
2015-Jul-24 12:33N 34°13' E 135°05'1111.3
2015-Jul-24 11:33N 34°24' E 135°04'1212.0
2015-Jul-24 10:33N 34°36' E 135°03'7 0.2
2015-Jul-23 05:10N 34°36' E 134°55'711.9
2015-Jul-23 04:33N 34°36' E 135°03'1111.1
2015-Jul-23 03:33N 34°34' E 135°17'8 8.0
2015-Jul-23 02:33N 34°33' E 135°26'0 0.0
2015-Jul-23 01:33N 34°33' E 135°26'0 0.0
2015-Jul-23 00:33N 34°33' E 135°26'2 1.6
2015-Jul-22 23:33N 34°33' E 135°24'5 2.2
2015-Jul-22 21:23N 34°32' E 135°19'2 2.2
2015-Jul-22 20:32N 34°33' E 135°17'1212.2
2015-Jul-22 19:33N 34°36' E 135°03'  
Track history (hours):
 
Tides and Currents Weather Stations Pressure Air Temp Water Temp Dewpoint Dewpoint Depression Visibility Wind Speed Wind Dir Waves Ship Positions

Nissho Maru No.18

Last reported at 2015-Jul-30 00:33 UTC. Time now 2015-Jul-30 02:02 UTC.
Position N 34°33' E 135°26'.

Length 65 m; draft 4 m.

Type: Tanker. MMSI: 431500465.

Date/timePositionNaut miles runAvg speedWind from/ knotsBaromVisibWave heightAir tempDewpointWater temp
2015-Jul-30 00:33N 34°33' E 135°26'5 5.2
2015-Jul-29 23:32N 34°33' E 135°20'1 1.1
2015-Jul-29 22:26N 34°32' E 135°19'0 0.0
2015-Jul-29 21:14N 34°32' E 135°19'0 0.1
2015-Jul-29 20:20N 34°32' E 135°19'4 5.6
2015-Jul-29 19:33N 34°29' E 135°15'1311.4
2015-Jul-29 18:23N 34°19' E 135°04'911.3
2015-Jul-29 17:33N 34°10' E 135°03'219 9.1
2015-Jul-28 17:30N 34°59' E 139°22'1111.1
2015-Jul-28 16:30N 35°03' E 139°34'1111.8
2015-Jul-28 15:33N 35°10' E 139°45'1110.8
2015-Jul-28 14:33N 35°21' E 139°42'1010.3
2015-Jul-28 13:33N 35°30' E 139°47'1 1.1
2015-Jul-28 12:33N 35°31' E 139°46'0 0.0
2015-Jul-28 11:33N 35°31' E 139°46'0 0.0
2015-Jul-28 10:33N 35°31' E 139°46'0 0.0
2015-Jul-28 09:33N 35°31' E 139°46'0 0.0
2015-Jul-28 08:33N 35°31' E 139°46'0 0.0
2015-Jul-28 07:33N 35°31' E 139°46'0 0.0
2015-Jul-28 06:33N 35°31' E 139°46'0 0.0
2015-Jul-28 05:33N 35°31' E 139°46'2 2.0
2015-Jul-28 04:33N 35°30' E 139°48'2 1.5
2015-Jul-28 03:33N 35°29' E 139°49'0 0.0
2015-Jul-28 02:33N 35°29' E 139°49'0 0.0
2015-Jul-28 01:33N 35°29' E 139°49'0 0.0
2015-Jul-28 00:33N 35°29' E 139°49'0 0.0
2015-Jul-27 23:33N 35°29' E 139°49'0 0.0
2015-Jul-27 22:33N 35°29' E 139°49'0 0.0
2015-Jul-27 21:33N 35°29' E 139°49'0 0.1
2015-Jul-27 20:33N 35°29' E 139°49'0 0.0
2015-Jul-27 19:33N 35°29' E 139°49'0 0.0
2015-Jul-27 18:33N 35°29' E 139°49'0 0.0
2015-Jul-27 17:33N 35°29' E 139°49'0 0.0
2015-Jul-27 16:33N 35°29' E 139°49'0 0.0
2015-Jul-27 15:33N 35°29' E 139°49'0 0.0
2015-Jul-27 14:33N 35°29' E 139°49'0 0.0
2015-Jul-27 13:33N 35°29' E 139°49'0 0.0
2015-Jul-27 12:33N 35°29' E 139°49'0 0.1
2015-Jul-27 11:33N 35°29' E 139°49'1111.0
2015-Jul-27 10:33N 35°19' E 139°44'1010.2
2015-Jul-27 09:33N 35°09' E 139°46'1111.3
2015-Jul-27 08:33N 35°01' E 139°37'234 9.6
2015-Jul-26 08:19N 33°60' E 135°03'7 9.8
2015-Jul-26 07:33N 34°07' E 135°04'3 3.1
2015-Jul-26 06:33N 34°07' E 135°08'0 0.0
2015-Jul-26 05:32N 34°07' E 135°08'0 0.0
2015-Jul-26 04:30N 34°07' E 135°08'0 0.0
2015-Jul-26 03:33N 34°07' E 135°08'0 0.0
2015-Jul-26 02:32N 34°07' E 135°08'0 0.0
2015-Jul-26 01:32N 34°07' E 135°08'0 0.0
2015-Jul-26 00:33N 34°07' E 135°08'2 2.1
2015-Jul-25 23:33N 34°09' E 135°08'1 0.9
2015-Jul-25 22:25N 34°09' E 135°09'0 0.0
2015-Jul-25 21:25N 34°09' E 135°09'0 0.0
2015-Jul-25 20:31N 34°09' E 135°09'0 0.1
2015-Jul-25 19:31N 34°09' E 135°09'0 0.0
2015-Jul-25 18:28N 34°09' E 135°09'0 0.0
2015-Jul-25 17:31N 34°09' E 135°09'0 0.0
2015-Jul-25 16:31N 34°09' E 135°09'0 0.1
2015-Jul-25 15:31N 34°09' E 135°09'0 0.0
2015-Jul-25 14:28N 34°09' E 135°09'0 0.0
2015-Jul-25 13:28N 34°09' E 135°09'0 0.0
2015-Jul-25 12:31N 34°09' E 135°09'0 0.0
2015-Jul-25 11:31N 34°09' E 135°09'0 0.0
2015-Jul-25 10:33N 34°09' E 135°09'0 0.0
2015-Jul-25 09:33N 34°09' E 135°09'0 0.0
2015-Jul-25 08:30N 34°09' E 135°09'0 0.0
2015-Jul-25 07:33N 34°09' E 135°09'0 0.0
2015-Jul-25 06:33N 34°09' E 135°09'0 0.0
2015-Jul-25 05:31N 34°09' E 135°09'0 0.0
2015-Jul-25 04:29N 34°09' E 135°09'0 0.0
2015-Jul-25 03:17N 34°09' E 135°09'0 0.1
2015-Jul-25 02:32N 34°09' E 135°09'0 0.0
2015-Jul-25 01:32N 34°09' E 135°09'0 0.0
2015-Jul-25 00:28N 34°09' E 135°09'0 0.1
2015-Jul-24 23:25N 34°09' E 135°09'0 0.1
2015-Jul-24 22:31N 34°09' E 135°09'0 0.0
2015-Jul-24 21:31N 34°09' E 135°09'0 0.0
2015-Jul-24 20:28N 34°09' E 135°09'0 0.0
2015-Jul-24 19:28N 34°09' E 135°09'0 0.0
2015-Jul-24 18:31N 34°09' E 135°09'0 0.0
2015-Jul-24 17:28N 34°09' E 135°09'0 0.1
2015-Jul-24 16:31N 34°09' E 135°09'0 0.0
2015-Jul-24 15:28N 34°09' E 135°09'0 0.0
2015-Jul-24 14:28N 34°09' E 135°09'0 0.0
2015-Jul-24 13:16N 34°09' E 135°09'5 6.9
2015-Jul-24 12:33N 34°13' E 135°05'1111.3
2015-Jul-24 11:33N 34°24' E 135°04'1212.0
2015-Jul-24 10:33N 34°36' E 135°03'7 0.2
2015-Jul-23 05:10N 34°36' E 134°55'711.9
2015-Jul-23 04:33N 34°36' E 135°03'1111.1
2015-Jul-23 03:33N 34°34' E 135°17'8 8.0
2015-Jul-23 02:33N 34°33' E 135°26'0 0.0
2015-Jul-23 01:33N 34°33' E 135°26'0 0.0
2015-Jul-23 00:33N 34°33' E 135°26'2 1.6
2015-Jul-22 23:33N 34°33' E 135°24'5 2.2
2015-Jul-22 21:23N 34°32' E 135°19'2 2.2
2015-Jul-22 20:32N 34°33' E 135°17'1212.2
2015-Jul-22 19:33N 34°36' E 135°03'  

Dump ship's entire track history